sensor_id;sensor_type;location;lat;lon;timestamp;temperature;humidity
11107;DHT22;5607;48.302;14.294;2022-12-18T00:00:41;-0.60;1.00
11107;DHT22;5607;48.302;14.294;2022-12-18T00:03:28;-0.60;1.00
11107;DHT22;5607;48.302;14.294;2022-12-18T00:06:14;-0.60;1.00
11107;DHT22;5607;48.302;14.294;2022-12-18T00:09:01;-0.60;1.00
11107;DHT22;5607;48.302;14.294;2022-12-18T00:11:48;-0.60;1.00
11107;DHT22;5607;48.302;14.294;2022-12-18T00:14:34;-0.70;1.00
11107;DHT22;5607;48.302;14.294;2022-12-18T00:17:21;-0.70;1.00
11107;DHT22;5607;48.302;14.294;2022-12-18T00:20:07;-0.60;1.00
11107;DHT22;5607;48.302;14.294;2022-12-18T00:22:53;-0.60;1.00
11107;DHT22;5607;48.302;14.294;2022-12-18T00:25:40;-0.70;1.00
11107;DHT22;5607;48.302;14.294;2022-12-18T00:28:26;-0.70;1.00
11107;DHT22;5607;48.302;14.294;2022-12-18T00:31:16;-0.70;1.00
11107;DHT22;5607;48.302;14.294;2022-12-18T00:34:03;-0.80;1.00
11107;DHT22;5607;48.302;14.294;2022-12-18T00:36:49;-0.80;1.00
11107;DHT22;5607;48.302;14.294;2022-12-18T00:39:35;-0.80;1.00
11107;DHT22;5607;48.302;14.294;2022-12-18T00:42:21;-0.80;1.00
11107;DHT22;5607;48.302;14.294;2022-12-18T00:45:27;-0.70;1.00
11107;DHT22;5607;48.302;14.294;2022-12-18T00:48:14;-0.70;1.00
11107;DHT22;5607;48.302;14.294;2022-12-18T00:51:00;-0.80;1.00
11107;DHT22;5607;48.302;14.294;2022-12-18T00:53:46;-0.90;1.00
11107;DHT22;5607;48.302;14.294;2022-12-18T00:56:32;-0.90;1.00
11107;DHT22;5607;48.302;14.294;2022-12-18T00:59:20;-0.90;1.00
11107;DHT22;5607;48.302;14.294;2022-12-18T01:02:07;-0.90;1.00
11107;DHT22;5607;48.302;14.294;2022-12-18T01:04:53;-1.00;1.00
11107;DHT22;5607;48.302;14.294;2022-12-18T01:07:39;-1.00;1.00
11107;DHT22;5607;48.302;14.294;2022-12-18T01:10:25;-1.00;1.00
11107;DHT22;5607;48.302;14.294;2022-12-18T01:13:12;-1.00;1.00
11107;DHT22;5607;48.302;14.294;2022-12-18T01:15:58;-1.00;1.00
11107;DHT22;5607;48.302;14.294;2022-12-18T01:18:44;-1.00;1.00
11107;DHT22;5607;48.302;14.294;2022-12-18T01:21:31;-1.00;1.00
11107;DHT22;5607;48.302;14.294;2022-12-18T01:24:17;-1.00;1.00
11107;DHT22;5607;48.302;14.294;2022-12-18T01:27:03;-1.00;1.00
11107;DHT22;5607;48.302;14.294;2022-12-18T01:29:49;-1.10;1.00
11107;DHT22;5607;48.302;14.294;2022-12-18T01:32:35;-1.10;1.00
11107;DHT22;5607;48.302;14.294;2022-12-18T01:35:22;-1.20;1.00
11107;DHT22;5607;48.302;14.294;2022-12-18T01:38:08;-1.20;1.00
11107;DHT22;5607;48.302;14.294;2022-12-18T01:40:58;-1.30;1.00
11107;DHT22;5607;48.302;14.294;2022-12-18T01:43:52;-1.40;1.00
11107;DHT22;5607;48.302;14.294;2022-12-18T01:46:38;-1.40;1.00
11107;DHT22;5607;48.302;14.294;2022-12-18T01:49:24;-1.50;1.00
11107;DHT22;5607;48.302;14.294;2022-12-18T01:52:10;-1.50;1.00
11107;DHT22;5607;48.302;14.294;2022-12-18T01:54:57;-1.50;1.00
11107;DHT22;5607;48.302;14.294;2022-12-18T01:57:43;-1.50;1.00
11107;DHT22;5607;48.302;14.294;2022-12-18T02:00:30;-1.60;1.00
11107;DHT22;5607;48.302;14.294;2022-12-18T02:03:16;-1.60;1.00
11107;DHT22;5607;48.302;14.294;2022-12-18T02:12:05;-1.80;1.00
11107;DHT22;5607;48.302;14.294;2022-12-18T02:15:07;-2.00;1.00
11107;DHT22;5607;48.302;14.294;2022-12-18T02:17:59;-2.00;1.00
11107;DHT22;5607;48.302;14.294;2022-12-18T02:20:48;-2.00;1.00
11107;DHT22;5607;48.302;14.294;2022-12-18T02:29:22;-2.20;1.00
11107;DHT22;5607;48.302;14.294;2022-12-18T02:32:11;-2.30;1.00
11107;DHT22;5607;48.302;14.294;2022-12-18T02:34:59;-2.40;1.00
11107;DHT22;5607;48.302;14.294;2022-12-18T02:37:48;-2.60;1.00
11107;DHT22;5607;48.302;14.294;2022-12-18T02:40:34;-2.70;1.00
11107;DHT22;5607;48.302;14.294;2022-12-18T02:43:21;-2.70;1.00
11107;DHT22;5607;48.302;14.294;2022-12-18T02:55:20;-2.50;1.00
11107;DHT22;5607;48.302;14.294;2022-12-18T03:03:50;-2.50;1.00
11107;DHT22;5607;48.302;14.294;2022-12-18T03:06:48;-2.50;1.00
11107;DHT22;5607;48.302;14.294;2022-12-18T03:09:36;-2.60;1.00
11107;DHT22;5607;48.302;14.294;2022-12-18T03:12:34;-2.50;1.00
11107;DHT22;5607;48.302;14.294;2022-12-18T03:15:23;-2.40;1.00
11107;DHT22;5607;48.302;14.294;2022-12-18T03:18:15;-2.30;1.00
11107;DHT22;5607;48.302;14.294;2022-12-18T03:21:04;-2.30;1.00
11107;DHT22;5607;48.302;14.294;2022-12-18T03:23:51;-2.20;1.00
11107;DHT22;5607;48.302;14.294;2022-12-18T03:26:40;-2.10;1.00
11107;DHT22;5607;48.302;14.294;2022-12-18T03:29:27;-2.10;1.00
11107;DHT22;5607;48.302;14.294;2022-12-18T03:32:21;-2.10;1.00
11107;DHT22;5607;48.302;14.294;2022-12-18T03:35:10;-2.10;1.00
11107;DHT22;5607;48.302;14.294;2022-12-18T03:37:57;-2.20;1.00
11107;DHT22;5607;48.302;14.294;2022-12-18T03:46:30;-2.30;1.00
11107;DHT22;5607;48.302;14.294;2022-12-18T03:55:21;-2.10;1.00
11107;DHT22;5607;48.302;14.294;2022-12-18T03:58:07;-2.00;1.00
11107;DHT22;5607;48.302;14.294;2022-12-18T04:00:56;-2.00;1.00
11107;DHT22;5607;48.302;14.294;2022-12-18T04:03:43;-2.30;1.00
11107;DHT22;5607;48.302;14.294;2022-12-18T04:06:30;-2.40;1.00
11107;DHT22;5607;48.302;14.294;2022-12-18T04:09:20;-2.60;1.00
11107;DHT22;5607;48.302;14.294;2022-12-18T04:12:07;-2.60;1.00
11107;DHT22;5607;48.302;14.294;2022-12-18T04:14:54;-2.70;1.00
11107;DHT22;5607;48.302;14.294;2022-12-18T04:17:43;-2.80;1.00
11107;DHT22;5607;48.302;14.294;2022-12-18T04:20:32;-2.90;1.00
11107;DHT22;5607;48.302;14.294;2022-12-18T04:23:18;-2.90;1.00
11107;DHT22;5607;48.302;14.294;2022-12-18T04:26:04;-3.00;1.00
11107;DHT22;5607;48.302;14.294;2022-12-18T04:28:51;-3.00;1.00
11107;DHT22;5607;48.302;14.294;2022-12-18T04:31:37;-3.00;1.00
11107;DHT22;5607;48.302;14.294;2022-12-18T04:34:23;-3.00;1.00
11107;DHT22;5607;48.302;14.294;2022-12-18T04:37:09;-3.10;1.00
11107;DHT22;5607;48.302;14.294;2022-12-18T04:39:56;-3.00;1.00
11107;DHT22;5607;48.302;14.294;2022-12-18T04:42:42;-2.80;1.00
11107;DHT22;5607;48.302;14.294;2022-12-18T04:45:29;-2.60;1.00
11107;DHT22;5607;48.302;14.294;2022-12-18T04:48:16;-2.70;1.00
11107;DHT22;5607;48.302;14.294;2022-12-18T04:51:02;-2.50;1.00
11107;DHT22;5607;48.302;14.294;2022-12-18T04:53:48;-2.60;1.00
11107;DHT22;5607;48.302;14.294;2022-12-18T04:56:35;-2.60;1.00
11107;DHT22;5607;48.302;14.294;2022-12-18T04:59:21;-2.60;1.00
11107;DHT22;5607;48.302;14.294;2022-12-18T05:02:07;-2.50;1.00
11107;DHT22;5607;48.302;14.294;2022-12-18T05:04:53;-2.50;1.00
11107;DHT22;5607;48.302;14.294;2022-12-18T05:07:40;-2.50;1.00
11107;DHT22;5607;48.302;14.294;2022-12-18T05:10:26;-2.50;1.00
11107;DHT22;5607;48.302;14.294;2022-12-18T05:13:12;-2.50;1.00
11107;DHT22;5607;48.302;14.294;2022-12-18T05:15:58;-2.50;1.00
11107;DHT22;5607;48.302;14.294;2022-12-18T05:18:44;-2.50;1.00
11107;DHT22;5607;48.302;14.294;2022-12-18T05:21:31;-2.50;1.00
11107;DHT22;5607;48.302;14.294;2022-12-18T05:24:17;-2.60;1.00
11107;DHT22;5607;48.302;14.294;2022-12-18T05:27:03;-2.70;1.00
11107;DHT22;5607;48.302;14.294;2022-12-18T05:29:49;-2.60;1.00
11107;DHT22;5607;48.302;14.294;2022-12-18T05:32:35;-2.70;1.00
11107;DHT22;5607;48.302;14.294;2022-12-18T05:35:22;-2.60;1.00
11107;DHT22;5607;48.302;14.294;2022-12-18T05:38:08;-2.70;1.00
11107;DHT22;5607;48.302;14.294;2022-12-18T05:40:54;-2.80;1.00
11107;DHT22;5607;48.302;14.294;2022-12-18T05:43:41;-3.00;1.00
11107;DHT22;5607;48.302;14.294;2022-12-18T05:46:27;-3.10;1.00
11107;DHT22;5607;48.302;14.294;2022-12-18T05:49:14;-3.20;1.00
11107;DHT22;5607;48.302;14.294;2022-12-18T05:52:00;-3.10;1.00
11107;DHT22;5607;48.302;14.294;2022-12-18T05:54:46;-3.20;1.00
11107;DHT22;5607;48.302;14.294;2022-12-18T05:57:33;-3.20;1.00
11107;DHT22;5607;48.302;14.294;2022-12-18T06:00:19;-3.30;1.00
11107;DHT22;5607;48.302;14.294;2022-12-18T06:03:06;-3.30;1.00
11107;DHT22;5607;48.302;14.294;2022-12-18T06:05:52;-3.20;1.00
11107;DHT22;5607;48.302;14.294;2022-12-18T06:08:38;-3.20;1.00
11107;DHT22;5607;48.302;14.294;2022-12-18T06:11:26;-3.20;1.00
11107;DHT22;5607;48.302;14.294;2022-12-18T06:14:12;-3.20;1.00
11107;DHT22;5607;48.302;14.294;2022-12-18T06:16:58;-3.30;1.00
11107;DHT22;5607;48.302;14.294;2022-12-18T06:19:45;-3.10;1.00
11107;DHT22;5607;48.302;14.294;2022-12-18T06:22:31;-3.00;1.00
11107;DHT22;5607;48.302;14.294;2022-12-18T06:25:18;-3.10;1.00
11107;DHT22;5607;48.302;14.294;2022-12-18T06:28:04;-3.10;1.00
11107;DHT22;5607;48.302;14.294;2022-12-18T06:30:50;-2.90;1.00
11107;DHT22;5607;48.302;14.294;2022-12-18T06:33:37;-2.80;1.00
11107;DHT22;5607;48.302;14.294;2022-12-18T06:36:23;-2.90;1.00
11107;DHT22;5607;48.302;14.294;2022-12-18T06:39:09;-2.90;1.00
11107;DHT22;5607;48.302;14.294;2022-12-18T06:41:56;-2.90;1.00
11107;DHT22;5607;48.302;14.294;2022-12-18T06:44:42;-2.80;1.00
11107;DHT22;5607;48.302;14.294;2022-12-18T06:47:28;-2.80;1.00
11107;DHT22;5607;48.302;14.294;2022-12-18T06:50:14;-2.80;1.00
11107;DHT22;5607;48.302;14.294;2022-12-18T06:53:00;-2.90;1.00
11107;DHT22;5607;48.302;14.294;2022-12-18T06:55:47;-2.90;1.00
11107;DHT22;5607;48.302;14.294;2022-12-18T06:58:33;-2.80;1.00
11107;DHT22;5607;48.302;14.294;2022-12-18T07:01:20;-2.90;1.00
11107;DHT22;5607;48.302;14.294;2022-12-18T07:04:06;-2.90;1.00
11107;DHT22;5607;48.302;14.294;2022-12-18T07:06:52;-3.00;1.00
11107;DHT22;5607;48.302;14.294;2022-12-18T07:09:38;-3.00;1.00
11107;DHT22;5607;48.302;14.294;2022-12-18T07:12:26;-3.00;1.00
11107;DHT22;5607;48.302;14.294;2022-12-18T07:15:12;-3.20;1.00
11107;DHT22;5607;48.302;14.294;2022-12-18T07:17:58;-3.20;1.00
11107;DHT22;5607;48.302;14.294;2022-12-18T07:20:44;-3.20;1.00
11107;DHT22;5607;48.302;14.294;2022-12-18T07:23:34;-3.20;1.00
11107;DHT22;5607;48.302;14.294;2022-12-18T07:26:21;-3.20;99.90
11107;DHT22;5607;48.302;14.294;2022-12-18T07:29:07;-3.20;1.00
11107;DHT22;5607;48.302;14.294;2022-12-18T07:31:54;-3.20;1.00
11107;DHT22;5607;48.302;14.294;2022-12-18T07:34:40;-3.30;1.40
11107;DHT22;5607;48.302;14.294;2022-12-18T07:37:26;-3.20;1.00
11107;DHT22;5607;48.302;14.294;2022-12-18T07:40:13;-3.20;1.00
11107;DHT22;5607;48.302;14.294;2022-12-18T07:42:59;-3.20;1.00
11107;DHT22;5607;48.302;14.294;2022-12-18T07:45:45;-3.10;1.00
11107;DHT22;5607;48.302;14.294;2022-12-18T07:48:31;-3.00;1.00
11107;DHT22;5607;48.302;14.294;2022-12-18T07:51:18;-3.10;1.00
11107;DHT22;5607;48.302;14.294;2022-12-18T07:54:04;-3.00;1.00
11107;DHT22;5607;48.302;14.294;2022-12-18T07:56:51;-3.00;1.00
11107;DHT22;5607;48.302;14.294;2022-12-18T07:59:37;-2.90;1.00
11107;DHT22;5607;48.302;14.294;2022-12-18T08:02:24;-3.00;1.00
11107;DHT22;5607;48.302;14.294;2022-12-18T08:05:10;-3.20;1.00
11107;DHT22;5607;48.302;14.294;2022-12-18T08:07:56;-3.20;1.00
11107;DHT22;5607;48.302;14.294;2022-12-18T08:10:44;-3.30;1.00
11107;DHT22;5607;48.302;14.294;2022-12-18T08:13:30;-3.20;1.00
11107;DHT22;5607;48.302;14.294;2022-12-18T08:16:17;-3.10;1.00
11107;DHT22;5607;48.302;14.294;2022-12-18T08:19:03;-2.80;1.00
11107;DHT22;5607;48.302;14.294;2022-12-18T08:21:49;-2.80;1.00
11107;DHT22;5607;48.302;14.294;2022-12-18T08:24:36;-2.70;1.00
11107;DHT22;5607;48.302;14.294;2022-12-18T08:27:22;-2.50;1.00
11107;DHT22;5607;48.302;14.294;2022-12-18T08:30:08;-2.40;1.00
11107;DHT22;5607;48.302;14.294;2022-12-18T08:32:55;-2.20;1.00
11107;DHT22;5607;48.302;14.294;2022-12-18T08:35:41;-2.00;1.00
11107;DHT22;5607;48.302;14.294;2022-12-18T08:38:27;-2.00;1.40
11107;DHT22;5607;48.302;14.294;2022-12-18T08:41:14;-1.90;99.90
11107;DHT22;5607;48.302;14.294;2022-12-18T08:44:01;-1.80;99.90
11107;DHT22;5607;48.302;14.294;2022-12-18T08:47:06;-1.60;99.90
11107;DHT22;5607;48.302;14.294;2022-12-18T08:49:52;-1.60;99.90
11107;DHT22;5607;48.302;14.294;2022-12-18T08:52:38;-1.60;99.90
11107;DHT22;5607;48.302;14.294;2022-12-18T08:55:25;-1.50;99.90
11107;DHT22;5607;48.302;14.294;2022-12-18T08:58:11;-1.40;99.90
11107;DHT22;5607;48.302;14.294;2022-12-18T09:01:00;-1.30;99.90
11107;DHT22;5607;48.302;14.294;2022-12-18T09:03:51;-1.20;99.90
11107;DHT22;5607;48.302;14.294;2022-12-18T09:06:37;-1.20;99.90
11107;DHT22;5607;48.302;14.294;2022-12-18T09:09:23;-1.20;99.90
11107;DHT22;5607;48.302;14.294;2022-12-18T09:12:09;-1.20;99.90
11107;DHT22;5607;48.302;14.294;2022-12-18T09:14:56;-1.20;99.90
11107;DHT22;5607;48.302;14.294;2022-12-18T09:17:42;-1.20;99.90
11107;DHT22;5607;48.302;14.294;2022-12-18T09:20:28;-1.30;99.90
11107;DHT22;5607;48.302;14.294;2022-12-18T09:23:15;-1.40;99.90
11107;DHT22;5607;48.302;14.294;2022-12-18T09:26:02;-1.40;99.90
11107;DHT22;5607;48.302;14.294;2022-12-18T09:28:49;-1.40;99.90
11107;DHT22;5607;48.302;14.294;2022-12-18T09:31:35;-1.60;99.90
11107;DHT22;5607;48.302;14.294;2022-12-18T09:34:21;-1.70;99.90
11107;DHT22;5607;48.302;14.294;2022-12-18T09:37:08;-1.70;99.90
11107;DHT22;5607;48.302;14.294;2022-12-18T09:39:54;-1.60;1.00
11107;DHT22;5607;48.302;14.294;2022-12-18T09:42:40;-1.60;99.90
11107;DHT22;5607;48.302;14.294;2022-12-18T09:45:40;-1.60;99.90
11107;DHT22;5607;48.302;14.294;2022-12-18T09:48:29;-1.40;99.90
11107;DHT22;5607;48.302;14.294;2022-12-18T09:51:18;-1.30;99.90
11107;DHT22;5607;48.302;14.294;2022-12-18T09:54:10;-1.20;99.90
11107;DHT22;5607;48.302;14.294;2022-12-18T09:56:57;-1.10;99.90
11107;DHT22;5607;48.302;14.294;2022-12-18T09:59:44;-1.00;99.90
11107;DHT22;5607;48.302;14.294;2022-12-18T10:02:32;-1.10;99.90
11107;DHT22;5607;48.302;14.294;2022-12-18T10:06:07;-1.10;99.90
11107;DHT22;5607;48.302;14.294;2022-12-18T10:11:35;-0.90;99.90
11107;DHT22;5607;48.302;14.294;2022-12-18T10:14:36;-0.70;99.90
11107;DHT22;5607;48.302;14.294;2022-12-18T10:26:10;-0.30;99.90
11107;DHT22;5607;48.302;14.294;2022-12-18T10:28:56;-0.20;99.90
11107;DHT22;5607;48.302;14.294;2022-12-18T10:31:43;-0.10;99.90
11107;DHT22;5607;48.302;14.294;2022-12-18T10:34:29;-0.10;99.90
11107;DHT22;5607;48.302;14.294;2022-12-18T10:37:16;-0.10;99.90
11107;DHT22;5607;48.302;14.294;2022-12-18T10:40:08;0.00;99.90
11107;DHT22;5607;48.302;14.294;2022-12-18T10:43:04;0.10;99.90
11107;DHT22;5607;48.302;14.294;2022-12-18T10:45:58;0.10;99.90
11107;DHT22;5607;48.302;14.294;2022-12-18T10:51:34;0.20;99.90
11107;DHT22;5607;48.302;14.294;2022-12-18T10:54:22;0.30;99.90
11107;DHT22;5607;48.302;14.294;2022-12-18T10:57:31;0.30;99.90
11107;DHT22;5607;48.302;14.294;2022-12-18T11:03:07;0.30;99.90
11107;DHT22;5607;48.302;14.294;2022-12-18T11:06:14;0.30;99.90
11107;DHT22;5607;48.302;14.294;2022-12-18T11:09:02;0.40;99.90
11107;DHT22;5607;48.302;14.294;2022-12-18T11:11:53;0.40;99.90
11107;DHT22;5607;48.302;14.294;2022-12-18T11:14:44;0.40;99.90
11107;DHT22;5607;48.302;14.294;2022-12-18T11:17:33;0.40;99.90
11107;DHT22;5607;48.302;14.294;2022-12-18T11:23:37;0.60;99.90
11107;DHT22;5607;48.302;14.294;2022-12-18T11:26:35;0.70;99.90
11107;DHT22;5607;48.302;14.294;2022-12-18T11:29:28;0.70;99.90
11107;DHT22;5607;48.302;14.294;2022-12-18T11:32:49;0.80;99.90
11107;DHT22;5607;48.302;14.294;2022-12-18T11:35:49;0.70;99.90
11107;DHT22;5607;48.302;14.294;2022-12-18T11:38:39;0.70;99.90
11107;DHT22;5607;48.302;14.294;2022-12-18T11:41:34;0.80;99.90
11107;DHT22;5607;48.302;14.294;2022-12-18T11:53:04;1.00;99.90
11107;DHT22;5607;48.302;14.294;2022-12-18T11:56:00;1.00;99.90
11107;DHT22;5607;48.302;14.294;2022-12-18T11:58:50;1.00;99.90
11107;DHT22;5607;48.302;14.294;2022-12-18T12:07:24;1.10;99.90
11107;DHT22;5607;48.302;14.294;2022-12-18T12:10:23;1.10;99.90
11107;DHT22;5607;48.302;14.294;2022-12-18T12:16:10;0.90;99.90
11107;DHT22;5607;48.302;14.294;2022-12-18T12:19:48;0.80;99.90
11107;DHT22;5607;48.302;14.294;2022-12-18T12:39:42;0.50;99.90
11107;DHT22;5607;48.302;14.294;2022-12-18T12:42:52;0.50;99.90
11107;DHT22;5607;48.302;14.294;2022-12-18T12:45:56;0.40;99.90
11107;DHT22;5607;48.302;14.294;2022-12-18T12:48:56;0.40;99.90
11107;DHT22;5607;48.302;14.294;2022-12-18T12:51:46;0.50;99.90
11107;DHT22;5607;48.302;14.294;2022-12-18T12:54:34;0.60;99.90
11107;DHT22;5607;48.302;14.294;2022-12-18T13:00:22;0.60;99.90
11107;DHT22;5607;48.302;14.294;2022-12-18T13:03:44;0.50;99.90
11107;DHT22;5607;48.302;14.294;2022-12-18T13:06:25;0.50;99.90
11107;DHT22;5607;48.302;14.294;2022-12-18T13:09:13;0.60;99.90
11107;DHT22;5607;48.302;14.294;2022-12-18T13:12:18;0.50;99.90
11107;DHT22;5607;48.302;14.294;2022-12-18T13:15:28;0.50;99.90
11107;DHT22;5607;48.302;14.294;2022-12-18T13:18:19;0.50;99.90
11107;DHT22;5607;48.302;14.294;2022-12-18T13:21:17;0.40;99.90
11107;DHT22;5607;48.302;14.294;2022-12-18T13:36:16;0.20;99.90
11107;DHT22;5607;48.302;14.294;2022-12-18T13:44:53;-0.10;1.00
11107;DHT22;5607;48.302;14.294;2022-12-18T13:47:40;0.00;1.00
11107;DHT22;5607;48.302;14.294;2022-12-18T13:50:29;-0.30;1.00
11107;DHT22;5607;48.302;14.294;2022-12-18T13:53:20;-0.30;1.00
11107;DHT22;5607;48.302;14.294;2022-12-18T13:56:07;-0.40;1.00
11107;DHT22;5607;48.302;14.294;2022-12-18T13:59:10;-0.40;1.00
11107;DHT22;5607;48.302;14.294;2022-12-18T14:01:58;-0.50;1.00
11107;DHT22;5607;48.302;14.294;2022-12-18T14:04:48;-0.50;1.00
11107;DHT22;5607;48.302;14.294;2022-12-18T14:07:38;-0.40;1.00
11107;DHT22;5607;48.302;14.294;2022-12-18T14:10:24;-0.40;1.00
11107;DHT22;5607;48.302;14.294;2022-12-18T14:13:11;-0.30;1.00
11107;DHT22;5607;48.302;14.294;2022-12-18T14:16:01;-0.30;1.00
11107;DHT22;5607;48.302;14.294;2022-12-18T14:18:52;-0.30;1.00
11107;DHT22;5607;48.302;14.294;2022-12-18T14:21:49;-0.40;1.00
11107;DHT22;5607;48.302;14.294;2022-12-18T14:24:38;-0.50;1.00
11107;DHT22;5607;48.302;14.294;2022-12-18T14:27:27;-0.60;1.00
11107;DHT22;5607;48.302;14.294;2022-12-18T14:33:20;-0.60;1.00
11107;DHT22;5607;48.302;14.294;2022-12-18T14:36:13;-0.80;1.00
11107;DHT22;5607;48.302;14.294;2022-12-18T14:39:00;-0.80;1.00
11107;DHT22;5607;48.302;14.294;2022-12-18T14:41:48;-0.80;1.00
11107;DHT22;5607;48.302;14.294;2022-12-18T14:44:34;-0.70;1.00
11107;DHT22;5607;48.302;14.294;2022-12-18T14:47:20;-0.80;1.00
11107;DHT22;5607;48.302;14.294;2022-12-18T14:50:11;-0.80;1.00
11107;DHT22;5607;48.302;14.294;2022-12-18T14:52:59;-0.90;1.00
11107;DHT22;5607;48.302;14.294;2022-12-18T14:55:46;-0.80;1.00
11107;DHT22;5607;48.302;14.294;2022-12-18T14:58:33;-0.70;1.00
11107;DHT22;5607;48.302;14.294;2022-12-18T15:01:30;-0.80;1.00
11107;DHT22;5607;48.302;14.294;2022-12-18T15:10:14;-0.80;1.00
11107;DHT22;5607;48.302;14.294;2022-12-18T15:15:49;-0.70;1.00
11107;DHT22;5607;48.302;14.294;2022-12-18T15:18:38;-0.60;1.00
11107;DHT22;5607;48.302;14.294;2022-12-18T15:21:27;-0.80;1.00
11107;DHT22;5607;48.302;14.294;2022-12-18T15:24:17;-0.80;1.00
11107;DHT22;5607;48.302;14.294;2022-12-18T15:27:04;-0.90;1.00
11107;DHT22;5607;48.302;14.294;2022-12-18T15:30:01;-1.00;1.00
11107;DHT22;5607;48.302;14.294;2022-12-18T15:32:47;-1.00;1.00
11107;DHT22;5607;48.302;14.294;2022-12-18T15:35:34;-1.00;1.00
11107;DHT22;5607;48.302;14.294;2022-12-18T15:38:23;-0.90;1.00
11107;DHT22;5607;48.302;14.294;2022-12-18T15:41:13;-1.00;1.00
11107;DHT22;5607;48.302;14.294;2022-12-18T15:44:01;-0.90;1.00
11107;DHT22;5607;48.302;14.294;2022-12-18T15:46:47;-0.90;1.00
11107;DHT22;5607;48.302;14.294;2022-12-18T15:49:34;-0.90;1.00
11107;DHT22;5607;48.302;14.294;2022-12-18T15:52:21;-0.80;1.00
11107;DHT22;5607;48.302;14.294;2022-12-18T15:55:12;-0.80;1.00
11107;DHT22;5607;48.302;14.294;2022-12-18T15:58:17;-0.80;1.00
11107;DHT22;5607;48.302;14.294;2022-12-18T16:01:03;-0.90;1.00
11107;DHT22;5607;48.302;14.294;2022-12-18T16:03:49;-0.80;1.00
11107;DHT22;5607;48.302;14.294;2022-12-18T16:06:35;-0.90;1.00
11107;DHT22;5607;48.302;14.294;2022-12-18T16:09:22;-0.90;1.00
11107;DHT22;5607;48.302;14.294;2022-12-18T16:12:13;-1.10;1.00
11107;DHT22;5607;48.302;14.294;2022-12-18T16:15:00;-1.30;1.00
11107;DHT22;5607;48.302;14.294;2022-12-18T16:17:46;-1.30;1.00
11107;DHT22;5607;48.302;14.294;2022-12-18T16:20:33;-1.30;1.00
11107;DHT22;5607;48.302;14.294;2022-12-18T16:23:19;-1.20;1.00
11107;DHT22;5607;48.302;14.294;2022-12-18T16:26:05;-1.30;1.00
11107;DHT22;5607;48.302;14.294;2022-12-18T16:28:52;-1.40;1.00
11107;DHT22;5607;48.302;14.294;2022-12-18T16:31:39;-1.40;1.00
11107;DHT22;5607;48.302;14.294;2022-12-18T16:34:27;-1.40;1.00
11107;DHT22;5607;48.302;14.294;2022-12-18T16:37:14;-1.40;1.00
11107;DHT22;5607;48.302;14.294;2022-12-18T16:40:02;-1.40;1.00
11107;DHT22;5607;48.302;14.294;2022-12-18T16:42:49;-1.40;1.00
11107;DHT22;5607;48.302;14.294;2022-12-18T16:45:35;-1.50;1.00
11107;DHT22;5607;48.302;14.294;2022-12-18T16:48:21;-1.50;1.00
11107;DHT22;5607;48.302;14.294;2022-12-18T16:51:07;-1.40;1.00
11107;DHT22;5607;48.302;14.294;2022-12-18T16:53:54;-1.30;1.00
11107;DHT22;5607;48.302;14.294;2022-12-18T16:56:40;-1.30;1.00
11107;DHT22;5607;48.302;14.294;2022-12-18T16:59:28;-1.30;1.00
11107;DHT22;5607;48.302;14.294;2022-12-18T17:02:15;-1.30;1.00
11107;DHT22;5607;48.302;14.294;2022-12-18T17:05:02;-1.20;1.00
11107;DHT22;5607;48.302;14.294;2022-12-18T17:07:48;-1.20;1.00
11107;DHT22;5607;48.302;14.294;2022-12-18T17:10:34;-1.30;1.00
11107;DHT22;5607;48.302;14.294;2022-12-18T17:13:25;-1.30;1.00
11107;DHT22;5607;48.302;14.294;2022-12-18T17:16:11;-1.30;1.00
11107;DHT22;5607;48.302;14.294;2022-12-18T17:18:58;-1.30;1.00
11107;DHT22;5607;48.302;14.294;2022-12-18T17:21:46;-1.50;1.00
11107;DHT22;5607;48.302;14.294;2022-12-18T17:24:33;-1.50;1.00
11107;DHT22;5607;48.302;14.294;2022-12-18T17:27:19;-1.40;1.00
11107;DHT22;5607;48.302;14.294;2022-12-18T17:30:05;-1.50;1.00
11107;DHT22;5607;48.302;14.294;2022-12-18T17:32:52;-1.40;1.00
11107;DHT22;5607;48.302;14.294;2022-12-18T17:35:38;-1.40;1.00
11107;DHT22;5607;48.302;14.294;2022-12-18T17:38:24;-1.40;1.00
11107;DHT22;5607;48.302;14.294;2022-12-18T17:41:10;-1.30;1.00
11107;DHT22;5607;48.302;14.294;2022-12-18T17:44:01;-1.30;1.00
11107;DHT22;5607;48.302;14.294;2022-12-18T17:46:47;-1.30;1.00
11107;DHT22;5607;48.302;14.294;2022-12-18T17:49:33;-1.30;1.00
11107;DHT22;5607;48.302;14.294;2022-12-18T17:52:20;-1.40;1.00
11107;DHT22;5607;48.302;14.294;2022-12-18T17:55:06;-1.40;1.00
11107;DHT22;5607;48.302;14.294;2022-12-18T17:57:53;-1.40;1.00
11107;DHT22;5607;48.302;14.294;2022-12-18T18:00:39;-1.40;1.00
11107;DHT22;5607;48.302;14.294;2022-12-18T18:03:25;-1.40;1.00
11107;DHT22;5607;48.302;14.294;2022-12-18T18:06:12;-1.30;1.00
11107;DHT22;5607;48.302;14.294;2022-12-18T18:08:58;-1.20;1.00
11107;DHT22;5607;48.302;14.294;2022-12-18T18:11:44;-1.20;1.00
11107;DHT22;5607;48.302;14.294;2022-12-18T18:14:49;-1.30;1.00
11107;DHT22;5607;48.302;14.294;2022-12-18T18:17:35;-1.30;1.00
11107;DHT22;5607;48.302;14.294;2022-12-18T18:20:22;-1.30;1.00
11107;DHT22;5607;48.302;14.294;2022-12-18T18:23:08;-1.30;1.00
11107;DHT22;5607;48.302;14.294;2022-12-18T18:25:55;-1.20;1.00
11107;DHT22;5607;48.302;14.294;2022-12-18T18:28:41;-1.20;1.00
11107;DHT22;5607;48.302;14.294;2022-12-18T18:31:28;-1.10;1.00
11107;DHT22;5607;48.302;14.294;2022-12-18T18:34:15;-1.00;1.00
11107;DHT22;5607;48.302;14.294;2022-12-18T18:37:02;-1.00;1.00
11107;DHT22;5607;48.302;14.294;2022-12-18T18:39:48;-1.10;1.00
11107;DHT22;5607;48.302;14.294;2022-12-18T18:42:34;-1.00;1.00
11107;DHT22;5607;48.302;14.294;2022-12-18T18:45:20;-1.10;1.00
11107;DHT22;5607;48.302;14.294;2022-12-18T18:48:07;-1.00;1.00
11107;DHT22;5607;48.302;14.294;2022-12-18T18:50:56;-1.00;1.00
11107;DHT22;5607;48.302;14.294;2022-12-18T18:53:43;-1.10;1.00
11107;DHT22;5607;48.302;14.294;2022-12-18T18:56:30;-1.10;1.00
11107;DHT22;5607;48.302;14.294;2022-12-18T18:59:17;-1.10;1.00
11107;DHT22;5607;48.302;14.294;2022-12-18T19:02:03;-1.20;1.00
11107;DHT22;5607;48.302;14.294;2022-12-18T19:04:49;-1.10;1.00
11107;DHT22;5607;48.302;14.294;2022-12-18T19:07:36;-1.10;1.00
11107;DHT22;5607;48.302;14.294;2022-12-18T19:10:22;-1.00;1.00
11107;DHT22;5607;48.302;14.294;2022-12-18T19:13:10;-0.90;1.00
11107;DHT22;5607;48.302;14.294;2022-12-18T19:16:07;-1.00;1.00
11107;DHT22;5607;48.302;14.294;2022-12-18T19:18:54;-1.00;1.00
11107;DHT22;5607;48.302;14.294;2022-12-18T19:21:41;-1.10;1.00
11107;DHT22;5607;48.302;14.294;2022-12-18T19:24:27;-1.20;1.00
11107;DHT22;5607;48.302;14.294;2022-12-18T19:27:13;-1.20;1.00
11107;DHT22;5607;48.302;14.294;2022-12-18T19:29:59;-1.20;1.00
11107;DHT22;5607;48.302;14.294;2022-12-18T19:32:46;-1.30;1.00
11107;DHT22;5607;48.302;14.294;2022-12-18T19:35:32;-1.30;1.00
11107;DHT22;5607;48.302;14.294;2022-12-18T19:38:18;-1.40;1.00
11107;DHT22;5607;48.302;14.294;2022-12-18T19:41:08;-1.50;1.00
11107;DHT22;5607;48.302;14.294;2022-12-18T19:43:54;-1.50;1.00
11107;DHT22;5607;48.302;14.294;2022-12-18T19:46:41;-1.50;1.00
11107;DHT22;5607;48.302;14.294;2022-12-18T19:49:27;-1.40;1.00
11107;DHT22;5607;48.302;14.294;2022-12-18T19:52:15;-1.20;1.00
11107;DHT22;5607;48.302;14.294;2022-12-18T19:55:02;-1.20;1.00
11107;DHT22;5607;48.302;14.294;2022-12-18T19:57:48;-1.30;1.00
11107;DHT22;5607;48.302;14.294;2022-12-18T20:00:34;-1.50;1.00
11107;DHT22;5607;48.302;14.294;2022-12-18T20:03:21;-1.60;1.00
11107;DHT22;5607;48.302;14.294;2022-12-18T20:06:44;-1.60;1.00